Time,TemperatureF,DewpointF,PressureIn,WindDirection,WindDirectionDegrees,WindSpeedMPH,WindSpeedGustMPH,Humidity,HourlyPrecipIn,Conditions,Clouds,dailyrainin,SoftwareType,DateUTC
2013-06-17 00:00:00,67.1,59.3,30.04,WNW,296,0.0,0.0,76,0.00,CLR,FEW,0.00,WeatherDisplay:10.37,2013-06-16 22:00:00,
2013-06-17 00:30:00,66.7,57.8,30.04,WNW,296,0.0,0.0,73,0.00,CLR,FEW,0.00,WeatherDisplay:10.37,2013-06-16 22:30:00,
2013-06-17 01:00:00,66.7,58.5,30.04,WNW,296,0.0,0.0,75,0.00,CLR,FEW,0.00,WeatherDisplay:10.37,2013-06-16 23:00:00,
2013-06-17 01:30:00,66.6,59.5,30.04,WNW,296,0.0,0.0,78,0.00,CLR,FEW,0.00,WeatherDisplay:10.37,2013-06-16 23:30:00,
2013-06-17 02:00:00,65.9,59.6,30.03,WNW,296,0.0,0.0,80,0.00,CLR,FEW,0.00,WeatherDisplay:10.37,2013-06-17 00:00:00,
2013-06-17 02:30:00,65.6,60.6,30.03,WNW,296,0.0,0.0,84,0.00,CLR,FEW,0.00,WeatherDisplay:10.37,2013-06-17 00:30:00,
2013-06-17 03:00:00,65.6,61.3,30.03,WNW,296,0.0,0.0,86,0.00,CLR,FEW,0.00,WeatherDisplay:10.37,2013-06-17 01:00:00,
2013-06-17 03:30:00,65.7,61.7,30.03,WNW,296,0.0,0.0,87,0.00,CLR,FEW,0.00,WeatherDisplay:10.37,2013-06-17 01:30:00,
2013-06-17 04:00:00,65.4,61.8,30.02,WNW,296,0.0,0.0,88,0.00,CLR,FEW,0.00,WeatherDisplay:10.37,2013-06-17 02:00:00,
2013-06-17 04:30:00,65.4,62.1,30.02,WNW,296,0.0,0.0,89,0.00,CLR,FEW,0.00,WeatherDisplay:10.37,2013-06-17 02:30:00,
2013-06-17 05:00:00,65.1,61.8,30.02,WNW,296,0.0,0.0,89,0.00,CLR,FEW,0.00,WeatherDisplay:10.37,2013-06-17 03:00:00,
2013-06-17 05:30:00,65.1,62.1,30.02,WNW,296,0.0,0.0,90,0.00,CLR,FEW,0.00,WeatherDisplay:10.37,2013-06-17 03:30:00,
2013-06-17 06:00:00,64.9,62.2,30.02,WNW,296,0.0,0.0,91,0.00,CLR,FEW,0.00,WeatherDisplay:10.37,2013-06-17 04:00:00,
2013-06-17 06:30:00,65.2,62.8,30.02,WNW,296,0.0,0.0,92,0.00,CLR,FEW,0.00,WeatherDisplay:10.37,2013-06-17 04:30:00,
2013-06-17 07:00:00,65.7,63.6,30.02,WNW,296,0.0,0.0,93,0.00,CLR,FEW,0.00,WeatherDisplay:10.37,2013-06-17 05:00:00,
2013-06-17 07:30:00,68.5,66.4,30.02,WNW,296,0.0,0.0,93,0.00,CLR,FEW,0.00,WeatherDisplay:10.37,2013-06-17 05:30:00,
2013-06-17 08:00:00,71.3,66.9,30.02,WNW,296,0.0,0.0,86,0.00,CLR,FEW,0.00,WeatherDisplay:10.37,2013-06-17 06:00:00,
2013-06-17 08:30:00,74.6,65.8,30.02,WNW,296,0.0,0.0,74,0.00,CLR,FEW,0.00,WeatherDisplay:10.37,2013-06-17 06:30:00,
2013-06-17 09:00:00,76.1,66.4,30.03,WNW,296,0.0,0.0,72,0.00,CLR,FEW,0.00,WeatherDisplay:10.37,2013-06-17 07:00:00,
2013-06-17 09:30:00,76.8,67.5,30.02,WNW,296,0.0,0.0,73,0.00,CLR,FEW,0.00,WeatherDisplay:10.37,2013-06-17 07:30:00,
2013-06-17 10:00:00,78.2,68.0,30.02,WNW,300,0.0,0.0,71,0.00,CLR,FEW,0.00,WeatherDisplay:10.37,2013-06-17 08:00:00,
2013-06-17 10:30:00,79.7,69.9,30.01,WNW,300,0.0,0.0,72,0.00,CLR,FEW,0.00,WeatherDisplay:10.37,2013-06-17 08:30:00,
2013-06-17 11:00:00,80.0,69.8,30.02,WNW,288,2.0,5.0,71,0.00,CLR,FEW,0.00,WeatherDisplay:10.37,2013-06-17 09:00:00,
2013-06-17 11:30:00,80.7,69.5,30.02,NW,311,1.0,5.0,69,0.00,CLR,FEW,0.00,WeatherDisplay:10.37,2013-06-17 09:30:00,
2013-06-17 12:00:00,82.5,69.5,30.02,West,280,1.0,5.0,65,0.00,CLR,FEW,0.00,WeatherDisplay:10.37,2013-06-17 10:00:00,
2013-06-17 12:30:00,83.0,70.0,30.02,West,275,1.0,6.0,65,0.00,CLR,FEW,0.00,WeatherDisplay:10.37,2013-06-17 10:30:00,
2013-06-17 13:00:00,85.0,71.0,30.02,SW,229,1.0,4.0,63,0.00,CLR,FEW,0.00,WeatherDisplay:10.37,2013-06-17 11:00:00,
2013-06-17 13:30:00,85.3,71.8,30.01,WNW,287,1.0,6.0,64,0.00,CLR,FEW,0.00,WeatherDisplay:10.37,2013-06-17 11:30:00,
2013-06-17 14:00:00,84.9,70.4,30.01,NW,312,1.0,7.0,62,0.00,CLR,FEW,0.00,WeatherDisplay:10.37,2013-06-17 12:00:00,
2013-06-17 14:30:00,86.9,70.8,30.00,SW,224,1.0,5.0,59,0.00,CLR,FEW,0.00,WeatherDisplay:10.37,2013-06-17 12:30:00,
2013-06-17 15:00:00,88.0,71.3,30.00,NW,305,1.0,5.0,58,0.00,CLR,FEW,0.00,WeatherDisplay:10.37,2013-06-17 13:00:00,
2013-06-17 15:30:00,88.3,71.1,29.99,WSW,254,2.0,8.0,57,0.00,CLR,FEW,0.00,WeatherDisplay:10.37,2013-06-17 13:30:00,
2013-06-17 16:00:00,88.0,71.9,29.99,WSW,257,1.0,6.0,59,0.00,CLR,FEW,0.00,WeatherDisplay:10.37,2013-06-17 14:00:00,
2013-06-17 16:30:00,87.3,71.7,29.99,NW,305,3.0,7.0,60,0.00,CLR,FEW,0.00,WeatherDisplay:10.37,2013-06-17 14:30:00,
2013-06-17 17:00:00,87.3,71.8,29.98,WNW,302,2.0,7.0,60,0.00,CLR,FEW,0.00,WeatherDisplay:10.37,2013-06-17 15:00:00,
2013-06-17 17:30:00,86.3,71.2,29.98,WNW,287,1.0,5.0,61,0.00,CLR,FEW,0.00,WeatherDisplay:10.37,2013-06-17 15:30:00,
2013-06-17 18:00:00,85.6,70.6,29.98,WNW,295,0.0,5.0,61,0.00,CLR,FEW,0.00,WeatherDisplay:10.37,2013-06-17 16:00:00,
2013-06-17 18:30:00,84.2,69.8,29.98,NW,313,0.0,5.0,62,0.00,CLR,FEW,0.00,WeatherDisplay:10.37,2013-06-17 16:30:00,
2013-06-17 19:00:00,82.9,69.5,29.98,NW,313,0.0,3.0,64,0.00,CLR,FEW,0.00,WeatherDisplay:10.37,2013-06-17 17:00:00,
2013-06-17 19:30:00,81.4,69.4,29.98,NW,313,0.0,4.0,67,0.00,CLR,FEW,0.00,WeatherDisplay:10.37,2013-06-17 17:30:00,
2013-06-17 20:00:00,80.2,69.1,29.98,NW,313,0.0,2.0,69,0.00,CLR,FEW,0.00,WeatherDisplay:10.37,2013-06-17 18:00:00,
2013-06-17 20:30:00,79.2,69.8,29.98,NW,313,0.0,1.0,73,0.00,CLR,FEW,0.00,WeatherDisplay:10.37,2013-06-17 18:30:00,
2013-06-17 21:00:00,76.9,68.3,29.99,NW,313,0.0,0.0,75,0.00,CLR,FEW,0.00,WeatherDisplay:10.37,2013-06-17 19:00:00,
2013-06-17 21:30:00,75.2,67.5,29.99,NW,313,0.0,1.0,77,0.00,CLR,FEW,0.00,WeatherDisplay:10.37,2013-06-17 19:30:00,
2013-06-17 22:00:00,73.9,67.3,30.00,NW,313,0.0,0.0,80,0.00,CLR,FEW,0.00,WeatherDisplay:10.37,2013-06-17 20:00:00,
2013-06-17 22:30:00,73.2,64.8,30.00,SE,129,0.0,6.0,75,0.00,CLR,FEW,0.00,WeatherDisplay:10.37,2013-06-17 20:30:00,
2013-06-17 23:00:00,74.9,64.5,30.00,East,82,1.0,5.0,70,0.00,CLR,FEW,0.00,WeatherDisplay:10.37,2013-06-17 21:00:00,
2013-06-17 23:30:00,74.9,64.5,30.00,East,84,0.0,2.0,70,0.00,CLR,FEW,0.00,WeatherDisplay:10.37,2013-06-17 21:30:00,